Time;durP1;ratioP1;P1;durP2;ratioP2;P2;SDS_P1;SDS_P2;PMS_P1;PMS_P2;Temp;Humidity;BMP_temperature;BMP_pressure;BME280_temperature;BME280_humidity;BME280_pressure;Samples;Min_cycle;Max_cycle;Signal;HPM_P1;HPM_P2
2023/10/17 00:01:21;;;;;;;7.13;4.60;;;;;;;;;;6194873;23;20027;-83
2023/10/17 00:03:48;;;;;;;7.35;4.47;;;;;;;;;;6194558;23;20082;-84
2023/10/17 00:06:17;;;;;;;7.63;4.43;;;;;;;;;;6195170;23;20022;-83
2023/10/17 00:08:50;;;;;;;8.23;4.25;;;;;;;;;;6194902;23;20012;-83
2023/10/17 00:11:17;;;;;;;9.30;4.80;;;;;;;;;;6219372;23;20020;-84
2023/10/17 00:13:59;;;;;;;7.30;5.05;;;;;;;;;;6193555;23;20016;-84
2023/10/17 00:16:26;;;;;;;6.43;4.15;;;;;;;;;;6192977;23;20016;-84
2023/10/17 00:18:52;;;;;;;6.22;4.60;;;;;;;;;;6192362;23;20333;-84
2023/10/17 00:21:26;;;;;;;8.15;4.30;;;;;;;;;;6220257;23;20027;-84
2023/10/17 00:23:52;;;;;;;7.13;4.50;;;;;;;;;;6194410;23;20024;-84
2023/10/17 00:26:19;;;;;;;10.18;5.15;;;;;;;;;;6191664;23;20091;-84
2023/10/17 00:28:49;;;;;;;11.35;5.60;;;;;;;;;;6192188;23;20185;-84
2023/10/17 00:31:15;;;;;;;13.98;6.40;;;;;;;;;;6218585;23;20016;-84
2023/10/17 00:33:41;;;;;;;10.50;6.28;;;;;;;;;;6217791;23;20326;-84
2023/10/17 00:36:14;;;;;;;10.45;6.40;;;;;;;;;;6192488;23;20054;-84
2023/10/17 00:38:43;;;;;;;13.02;6.95;;;;;;;;;;6193662;23;20099;-83
2023/10/17 00:41:10;;;;;;;9.50;6.20;;;;;;;;;;6192963;23;20023;-84
2023/10/17 00:43:37;;;;;;;11.80;6.60;;;;;;;;;;6193409;23;20043;-84
2023/10/17 00:46:07;;;;;;;11.57;6.53;;;;;;;;;;6217014;23;20055;-83
2023/10/17 00:48:34;;;;;;;10.07;6.10;;;;;;;;;;6193565;23;20016;-83
2023/10/17 00:51:09;;;;;;;7.88;5.72;;;;;;;;;;6193732;23;20020;-84
2023/10/17 00:53:39;;;;;;;11.60;6.43;;;;;;;;;;6193800;23;20016;-84
2023/10/17 00:56:06;;;;;;;10.70;6.25;;;;;;;;;;6193300;23;20328;-84
2023/10/17 00:58:33;;;;;;;8.57;6.15;;;;;;;;;;6218980;23;20016;-84
2023/10/17 01:01:09;;;;;;;9.88;5.95;;;;;;;;;;6193367;23;20024;-83
2023/10/17 01:03:43;;;;;;;8.50;6.25;;;;;;;;;;6193064;23;20353;-83
2023/10/17 01:08:57;;;;;;;9.95;5.97;;;;;;;;;;6218347;23;20016;-83
2023/10/17 01:11:30;;;;;;;9.77;5.95;;;;;;;;;;6193262;23;20024;-83
2023/10/17 01:13:57;;;;;;;10.48;6.20;;;;;;;;;;6193034;23;20067;-84
2023/10/17 01:16:26;;;;;;;7.78;5.95;;;;;;;;;;6192475;23;20016;-84
2023/10/17 01:18:55;;;;;;;9.30;6.53;;;;;;;;;;6244758;23;20035;-84
2023/10/17 01:21:22;;;;;;;9.90;6.50;;;;;;;;;;6192395;23;20095;-84
2023/10/17 01:23:48;;;;;;;9.73;7.00;;;;;;;;;;6193052;23;20457;-83
2023/10/17 01:26:20;;;;;;;10.75;6.82;;;;;;;;;;6192814;23;20078;-83
2023/10/17 01:28:47;;;;;;;9.95;7.40;;;;;;;;;;6192742;23;20016;-84
2023/10/17 01:31:16;;;;;;;13.43;7.43;;;;;;;;;;6217597;23;20051;-84
2023/10/17 01:33:43;;;;;;;18.05;9.70;;;;;;;;;;6192986;23;20051;-84
2023/10/17 01:36:16;;;;;;;14.25;7.72;;;;;;;;;;6218419;23;20413;-84
2023/10/17 01:38:42;;;;;;;11.48;6.60;;;;;;;;;;6216801;23;20046;-84
2023/10/17 01:41:11;;;;;;;11.25;7.15;;;;;;;;;;6218362;23;20087;-84
2023/10/17 01:43:41;;;;;;;12.20;7.03;;;;;;;;;;6191530;23;20016;-84
2023/10/17 01:46:14;;;;;;;13.77;6.88;;;;;;;;;;6192497;23;20016;-84
2023/10/17 01:48:40;;;;;;;12.85;6.43;;;;;;;;;;6193314;23;20024;-84
2023/10/17 01:51:06;;;;;;;10.45;5.90;;;;;;;;;;6193339;23;20417;-83
2023/10/17 01:53:33;;;;;;;9.93;6.13;;;;;;;;;;6192677;23;20098;-84
2023/10/17 01:56:06;;;;;;;7.88;5.55;;;;;;;;;;6193604;23;20314;-84
2023/10/17 01:58:36;;;;;;;9.32;5.70;;;;;;;;;;6192854;23;20326;-84
2023/10/17 02:01:03;;;;;;;8.40;5.20;;;;;;;;;;6218003;23;20044;-83
2023/10/17 02:03:30;;;;;;;10.77;5.43;;;;;;;;;;6193735;23;20024;-83
2023/10/17 02:05:56;;;;;;;9.20;5.95;;;;;;;;;;6194091;23;20445;-83
2023/10/17 02:08:22;;;;;;;9.05;6.47;;;;;;;;;;6219813;23;20016;-84
2023/10/17 02:10:48;;;;;;;9.43;6.30;;;;;;;;;;6195202;23;20430;-83
2023/10/17 02:13:15;;;;;;;13.57;6.47;;;;;;;;;;6193459;23;20075;-84
2023/10/17 02:15:41;;;;;;;11.10;6.68;;;;;;;;;;6193281;23;20085;-83
2023/10/17 02:18:15;;;;;;;11.02;6.05;;;;;;;;;;6218516;23;20048;-84
2023/10/17 02:21:04;;;;;;;8.10;5.85;;;;;;;;;;6193550;23;20016;-83
2023/10/17 02:23:34;;;;;;;10.10;6.18;;;;;;;;;;6242680;23;20024;-84
2023/10/17 02:26:09;;;;;;;9.95;6.57;;;;;;;;;;6217712;23;20024;-83
2023/10/17 02:28:44;;;;;;;6.97;5.55;;;;;;;;;;6218533;23;20383;-84
2023/10/17 02:31:14;;;;;;;8.40;6.13;;;;;;;;;;6192006;23;20016;-83
2023/10/17 02:33:43;;;;;;;9.05;5.82;;;;;;;;;;6192498;23;20483;-84
2023/10/17 02:36:13;;;;;;;10.30;6.00;;;;;;;;;;6192261;23;20016;-83
2023/10/17 02:38:40;;;;;;;8.60;5.78;;;;;;;;;;6193558;23;20536;-84
2023/10/17 02:41:14;;;;;;;8.43;6.80;;;;;;;;;;6193515;23;20321;-84
2023/10/17 02:43:40;;;;;;;10.45;7.03;;;;;;;;;;6220642;23;20085;-83
2023/10/17 02:46:12;;;;;;;9.00;6.18;;;;;;;;;;6193022;23;20353;-84
2023/10/17 02:48:38;;;;;;;8.63;6.13;;;;;;;;;;6194597;23;20027;-84
2023/10/17 02:53:53;;;;;;;5.28;3.70;;;;;;;;;;6219380;23;20052;-84
2023/10/17 02:56:20;;;;;;;5.85;3.63;;;;;;;;;;6195417;23;20012;-84
2023/10/17 02:59:12;;;;;;;5.85;4.18;;;;;;;;;;6194535;23;20016;-83
2023/10/17 03:01:40;;;;;;;5.82;4.60;;;;;;;;;;6219429;23;20020;-83
2023/10/17 03:04:12;;;;;;;7.93;5.72;;;;;;;;;;6194306;23;20325;-85
2023/10/17 03:06:40;;;;;;;10.73;5.80;;;;;;;;;;6195778;23;20024;-84
2023/10/17 03:12:06;;;;;;;14.38;7.22;;;;;;;;;;6219553;23;20042;-84
2023/10/17 03:14:40;;;;;;;10.88;7.47;;;;;;;;;;6219975;23;20105;-84
2023/10/17 03:17:09;;;;;;;11.18;7.35;;;;;;;;;;6219282;23;20012;-83
2023/10/17 03:19:36;;;;;;;9.38;6.90;;;;;;;;;;6194264;23;20023;-84
2023/10/17 03:24:47;;;;;;;9.10;6.20;;;;;;;;;;6220187;23;20322;-84
2023/10/17 03:28:00;;;;;;;7.80;5.75;;;;;;;;;;6193370;23;20051;-83
2023/10/17 03:30:06;;;;;;;9.07;6.00;;;;;;;;;;6197504;23;20063;-83
2023/10/17 03:32:33;;;;;;;8.00;5.75;;;;;;;;;;6194212;23;20048;-84
2023/10/17 03:35:02;;;;;;;7.25;5.13;;;;;;;;;;6192395;23;20043;-84
2023/10/17 03:37:29;;;;;;;6.68;4.78;;;;;;;;;;6246348;23;20317;-83
2023/10/17 03:39:57;;;;;;;8.98;4.90;;;;;;;;;;6194301;23;20091;-83
2023/10/17 03:45:12;;;;;;;6.90;5.47;;;;;;;;;;6217734;23;20056;-83
2023/10/17 03:47:39;;;;;;;7.72;5.10;;;;;;;;;;6218665;23;20020;-83
2023/10/17 03:50:08;;;;;;;7.25;4.93;;;;;;;;;;6245448;23;20020;-83
2023/10/17 03:52:35;;;;;;;7.53;5.55;;;;;;;;;;6218898;23;20020;-83
2023/10/17 03:55:01;;;;;;;8.93;5.60;;;;;;;;;;6192263;23;20062;-83
2023/10/17 03:57:28;;;;;;;9.10;6.18;;;;;;;;;;6193209;23;20023;-84
2023/10/17 03:59:56;;;;;;;11.57;6.03;;;;;;;;;;6193718;23;20532;-84
2023/10/17 04:02:24;;;;;;;9.02;6.43;;;;;;;;;;6193158;23;20502;-84
2023/10/17 04:04:57;;;;;;;12.30;6.43;;;;;;;;;;6218903;23;20461;-83
2023/10/17 04:07:24;;;;;;;9.32;5.72;;;;;;;;;;6245993;23;20020;-83
2023/10/17 04:09:54;;;;;;;9.30;5.68;;;;;;;;;;6217590;23;20079;-83
2023/10/17 04:12:22;;;;;;;9.40;5.40;;;;;;;;;;6218768;23;20024;-83
2023/10/17 04:14:58;;;;;;;9.68;5.53;;;;;;;;;;6217347;23;20012;-83
2023/10/17 04:17:27;;;;;;;9.30;5.00;;;;;;;;;;6219373;23;20012;-83
2023/10/17 04:19:58;;;;;;;9.70;5.18;;;;;;;;;;6193451;23;20047;-83
2023/10/17 04:22:29;;;;;;;8.35;5.20;;;;;;;;;;6193614;23;20078;-83
2023/10/17 04:25:00;;;;;;;7.47;5.43;;;;;;;;;;6193944;23;20032;-83
2023/10/17 04:27:31;;;;;;;6.88;5.15;;;;;;;;;;6218179;23;20028;-83
2023/10/17 04:29:58;;;;;;;7.88;5.70;;;;;;;;;;6218269;23;20016;-84
2023/10/17 04:32:38;;;;;;;6.50;4.95;;;;;;;;;;6194329;23;20016;-83
2023/10/17 04:35:07;;;;;;;7.00;4.75;;;;;;;;;;6219291;23;20028;-83
2023/10/17 04:37:33;;;;;;;10.25;5.00;;;;;;;;;;6219212;23;20016;-83
2023/10/17 04:42:53;;;;;;;7.47;4.85;;;;;;;;;;6216928;23;20020;-84
2023/10/17 04:45:23;;;;;;;6.93;4.55;;;;;;;;;;6192811;23;20020;-83
2023/10/17 04:48:10;;;;;;;7.18;5.18;;;;;;;;;;6194072;23;20099;-83
2023/10/17 04:50:55;;;;;;;8.23;5.60;;;;;;;;;;6193563;23;20020;-84
2023/10/17 04:53:35;;;;;;;7.13;4.78;;;;;;;;;;6193980;23;20413;-83
2023/10/17 04:56:11;;;;;;;6.88;4.88;;;;;;;;;;6192800;23;20070;-84
2023/10/17 04:58:47;;;;;;;6.30;4.78;;;;;;;;;;6193054;23;20026;-84
2023/10/17 05:04:17;;;;;;;5.57;4.55;;;;;;;;;;6218514;23;20035;-84
2023/10/17 06:17:48;;;;;;;7.95;5.03;;;;;;;;;;6221207;23;20020;-83
2023/10/17 06:20:16;;;;;;;7.50;5.03;;;;;;;;;;6221712;23;20087;-83
2023/10/17 06:28:29;;;;;;;4.90;3.78;;;;;;;;;;6176135;23;20514;-83
2023/10/17 06:33:52;;;;;;;7.88;4.40;;;;;;;;;;6179643;23;20024;-84
2023/10/17 06:36:25;;;;;;;4.53;3.92;;;;;;;;;;6192668;23;20055;-84
2023/10/17 06:38:52;;;;;;;7.30;4.72;;;;;;;;;;6193530;23;20024;-85
2023/10/17 06:41:38;;;;;;;6.78;4.65;;;;;;;;;;6193659;23;20527;-85
2023/10/17 06:44:10;;;;;;;11.05;5.68;;;;;;;;;;6192218;23;20403;-85
2023/10/17 06:49:28;;;;;;;8.25;5.05;;;;;;;;;;6218806;23;20344;-84
2023/10/17 06:52:18;;;;;;;7.75;5.40;;;;;;;;;;6193605;23;20047;-84
2023/10/17 06:54:41;;;;;;;7.75;5.70;;;;;;;;;;6217378;23;20022;-85
2023/10/17 06:57:20;;;;;;;9.75;5.40;;;;;;;;;;6194429;23;20034;-84
2023/10/17 06:59:46;;;;;;;8.93;5.10;;;;;;;;;;6194451;23;20016;-86
2023/10/17 07:02:31;;;;;;;10.30;5.70;;;;;;;;;;6193260;23;20016;-85
2023/10/17 07:05:00;;;;;;;8.00;4.75;;;;;;;;;;6192392;23;20023;-85
2023/10/17 07:07:39;;;;;;;9.18;5.80;;;;;;;;;;6194452;23;20071;-85
2023/10/17 07:13:23;;;;;;;11.48;5.55;;;;;;;;;;6152647;23;20016;-85
2023/10/17 07:15:52;;;;;;;9.18;6.32;;;;;;;;;;6194011;23;20099;-85
2023/10/17 07:23:42;;;;;;;11.98;6.03;;;;;;;;;;6219489;23;20318;-85
2023/10/17 07:26:17;;;;;;;11.05;5.90;;;;;;;;;;6192104;23;20012;-85
2023/10/17 07:28:50;;;;;;;9.95;5.88;;;;;;;;;;6192873;23;20091;-86
2023/10/17 07:31:22;;;;;;;9.43;5.75;;;;;;;;;;6194070;23;20016;-85
2023/10/17 07:34:16;;;;;;;9.30;5.60;;;;;;;;;;6194675;23;20027;-85
2023/10/17 07:36:43;;;;;;;9.60;5.07;;;;;;;;;;6194809;23;20016;-85
2023/10/17 07:39:23;;;;;;;7.10;4.95;;;;;;;;;;6194206;23;20016;-85
2023/10/17 07:41:53;;;;;;;8.57;4.82;;;;;;;;;;6193056;23;20074;-85
2023/10/17 07:44:19;;;;;;;8.02;5.00;;;;;;;;;;6192991;23;20020;-85
2023/10/17 07:47:08;;;;;;;6.00;4.50;;;;;;;;;;6217458;23;20020;-85
2023/10/17 07:49:35;;;;;;;6.90;4.22;;;;;;;;;;6245529;23;20290;-85
2023/10/17 07:52:17;;;;;;;11.07;4.60;;;;;;;;;;6193706;23;20413;-86
2023/10/17 07:54:58;;;;;;;7.50;4.68;;;;;;;;;;6194368;23;20073;-85
2023/10/17 07:57:28;;;;;;;6.75;4.45;;;;;;;;;;6194307;23;20023;-85
2023/10/17 07:59:57;;;;;;;5.47;3.70;;;;;;;;;;6194132;23;20379;-85
2023/10/17 08:02:23;;;;;;;6.57;3.75;;;;;;;;;;6193245;23;20400;-85
2023/10/17 08:04:53;;;;;;;5.05;3.70;;;;;;;;;;6193981;23;20012;-85
2023/10/17 08:07:22;;;;;;;6.90;4.40;;;;;;;;;;6193967;23;20066;-85
2023/10/17 08:09:58;;;;;;;5.57;3.47;;;;;;;;;;6218766;23;20039;-85
2023/10/17 08:12:29;;;;;;;7.13;3.47;;;;;;;;;;6194376;23;20011;-85
2023/10/17 08:14:58;;;;;;;6.07;3.28;;;;;;;;;;6219163;23;20063;-85
2023/10/17 08:17:28;;;;;;;6.05;3.42;;;;;;;;;;6194214;23;20020;-85
2023/10/17 08:20:08;;;;;;;5.63;3.22;;;;;;;;;;6218925;23;20019;-85
2023/10/17 08:22:54;;;;;;;4.63;2.78;;;;;;;;;;6219082;23;20012;-85
2023/10/17 08:25:27;;;;;;;5.18;2.55;;;;;;;;;;6193893;23;20048;-85
2023/10/17 08:27:55;;;;;;;4.78;2.30;;;;;;;;;;6193428;23;20016;-85
2023/10/17 08:30:25;;;;;;;5.07;2.38;;;;;;;;;;6193213;23;20066;-84
2023/10/17 08:32:55;;;;;;;6.13;2.30;;;;;;;;;;6193919;23;20020;-85
2023/10/17 08:35:51;;;;;;;5.22;2.28;;;;;;;;;;6193748;23;20106;-85
2023/10/17 08:38:13;;;;;;;;;;;;;;;;;;6244317;23;20107;-85
2023/10/17 08:40:40;;;;;;;3.28;2.17;;;;;;;;;;6193222;23;20339;-85
2023/10/17 08:43:11;;;;;;;3.47;2.05;;;;;;;;;;6193074;23;20098;-85
2023/10/17 08:45:38;;;;;;;4.20;1.92;;;;;;;;;;6193680;23;20023;-85
2023/10/17 08:48:09;;;;;;;4.45;2.10;;;;;;;;;;6193714;23;20373;-86
2023/10/17 08:50:43;;;;;;;4.10;1.90;;;;;;;;;;6193345;23;20101;-85
2023/10/17 08:53:21;;;;;;;4.75;2.28;;;;;;;;;;6194248;23;20022;-84
2023/10/17 08:55:52;;;;;;;3.65;1.88;;;;;;;;;;6193734;23;20326;-86
2023/10/17 08:58:24;;;;;;;3.88;2.20;;;;;;;;;;6193704;23;20013;-86
2023/10/17 09:00:55;;;;;;;6.45;2.20;;;;;;;;;;6193650;23;20054;-86
2023/10/17 09:03:36;;;;;;;4.82;2.55;;;;;;;;;;6199251;23;20107;-85
2023/10/17 09:08:55;;;;;;;4.82;2.40;;;;;;;;;;6218092;23;20055;-85
2023/10/17 09:11:33;;;;;;;3.47;2.20;;;;;;;;;;6193629;23;20389;-86
2023/10/17 09:14:24;;;;;;;4.82;2.80;;;;;;;;;;6193814;23;20055;-86
2023/10/17 09:17:16;;;;;;;4.05;2.58;;;;;;;;;;6216804;23;20479;-86
2023/10/17 09:19:52;;;;;;;4.35;2.30;;;;;;;;;;6218916;23;20063;-85
2023/10/17 09:22:40;;;;;;;5.47;2.95;;;;;;;;;;6193433;23;20016;-86
2023/10/17 09:25:19;;;;;;;3.95;2.58;;;;;;;;;;6192555;23;20038;-85
2023/10/17 09:27:49;;;;;;;4.20;2.50;;;;;;;;;;6193225;23;20091;-85
2023/10/17 09:30:17;;;;;;;2.70;2.00;;;;;;;;;;6194144;23;20016;-84
2023/10/17 09:32:44;;;;;;;5.40;2.30;;;;;;;;;;6193694;23;20016;-85
2023/10/17 09:35:14;;;;;;;4.63;1.98;;;;;;;;;;6193463;23;20031;-84
2023/10/17 09:37:44;;;;;;;3.70;1.88;;;;;;;;;;6193270;23;20048;-84
2023/10/17 09:40:12;;;;;;;4.90;2.10;;;;;;;;;;6192892;23;20028;-85
2023/10/17 09:42:59;;;;;;;2.80;2.20;;;;;;;;;;6193249;23;20016;-87
2023/10/17 09:45:31;;;;;;;3.33;2.10;;;;;;;;;;6193352;23;20103;-84
2023/10/17 09:47:59;;;;;;;2.92;2.20;;;;;;;;;;6193539;23;20016;-85
2023/10/17 09:50:25;;;;;;;6.40;2.63;;;;;;;;;;6194250;23;20108;-84
2023/10/17 09:52:54;;;;;;;6.00;2.33;;;;;;;;;;6195416;23;20103;-84
2023/10/17 09:55:23;;;;;;;4.93;2.45;;;;;;;;;;6195035;23;20012;-84
2023/10/17 09:58:03;;;;;;;5.30;2.60;;;;;;;;;;6195557;23;20016;-85
2023/10/17 10:00:38;;;;;;;2.80;2.30;;;;;;;;;;6190358;23;20026;-84
2023/10/17 10:03:06;;;;;;;4.95;2.60;;;;;;;;;;6195833;23;20026;-85
2023/10/17 10:05:32;;;;;;;4.32;2.22;;;;;;;;;;6197182;23;20082;-85
2023/10/17 10:08:05;;;;;;;5.57;2.50;;;;;;;;;;6198150;23;20487;-85
2023/10/17 10:10:46;;;;;;;4.07;2.65;;;;;;;;;;6197076;23;20012;-84
2023/10/17 10:13:15;;;;;;;4.45;2.35;;;;;;;;;;6196064;23;20020;-86
2023/10/17 10:16:04;;;;;;;4.13;2.30;;;;;;;;;;6221558;23;20016;-86
2023/10/17 10:18:36;;;;;;;5.03;2.83;;;;;;;;;;6197135;23;20020;-84
2023/10/17 10:21:03;;;;;;;5.78;2.88;;;;;;;;;;6196179;23;20534;-86
2023/10/17 10:23:36;;;;;;;3.95;2.30;;;;;;;;;;6196909;23;20013;-86
2023/10/17 10:26:11;;;;;;;4.18;2.40;;;;;;;;;;6195844;23;20460;-84
2023/10/17 10:28:38;;;;;;;5.70;2.80;;;;;;;;;;6196478;23;20464;-86
2023/10/17 10:31:23;;;;;;;6.38;2.55;;;;;;;;;;6196438;23;20008;-86
2023/10/17 10:33:50;;;;;;;5.07;2.47;;;;;;;;;;6196253;23;20086;-85
2023/10/17 10:36:19;;;;;;;4.10;2.30;;;;;;;;;;6195046;23;20071;-85
2023/10/17 10:38:46;;;;;;;4.88;2.47;;;;;;;;;;6194923;23;20047;-85
2023/10/17 10:41:13;;;;;;;4.35;2.80;;;;;;;;;;6194227;23;20023;-84
2023/10/17 10:43:49;;;;;;;3.78;2.55;;;;;;;;;;6199513;23;20019;-84
2023/10/17 10:46:18;;;;;;;4.45;2.33;;;;;;;;;;6198736;23;20020;-85
2023/10/17 10:48:53;;;;;;;4.07;2.70;;;;;;;;;;6196805;23;20016;-84
2023/10/17 10:51:21;;;;;;;5.10;2.67;;;;;;;;;;6199485;23;20023;-84
2023/10/17 10:53:57;;;;;;;4.05;2.70;;;;;;;;;;6198250;23;20452;-84
2023/10/17 10:56:29;;;;;;;4.75;2.72;;;;;;;;;;6195986;23;20070;-85
2023/10/17 10:58:55;;;;;;;4.10;2.50;;;;;;;;;;6194964;23;20017;-84
2023/10/17 11:01:22;;;;;;;4.07;2.58;;;;;;;;;;6195503;23;20016;-85
2023/10/17 11:03:49;;;;;;;5.72;2.30;;;;;;;;;;6195620;23;20023;-84
2023/10/17 11:06:19;;;;;;;5.03;2.17;;;;;;;;;;6194952;23;20012;-85
2023/10/17 11:08:46;;;;;;;5.88;2.25;;;;;;;;;;6194919;23;20016;-85
2023/10/17 11:11:22;;;;;;;3.75;2.10;;;;;;;;;;6194717;23;20056;-85
2023/10/17 11:13:48;;;;;;;7.57;2.78;;;;;;;;;;6194777;23;20082;-85
2023/10/17 11:16:24;;;;;;;4.03;2.13;;;;;;;;;;6194685;23;20336;-85
2023/10/17 11:18:51;;;;;;;3.70;2.20;;;;;;;;;;6194773;23;20012;-85
2023/10/17 11:21:19;;;;;;;4.25;2.30;;;;;;;;;;6194092;23;20024;-85
2023/10/17 11:23:50;;;;;;;4.78;2.55;;;;;;;;;;6194172;23;20019;-85
2023/10/17 11:26:19;;;;;;;4.90;2.33;;;;;;;;;;6194981;23;20051;-84
2023/10/17 11:28:52;;;;;;;4.15;2.45;;;;;;;;;;6194947;23;20063;-85
2023/10/17 11:31:22;;;;;;;2.78;2.42;;;;;;;;;;6194456;23;20105;-85
2023/10/17 11:33:59;;;;;;;4.78;2.30;;;;;;;;;;6194882;23;20016;-85
2023/10/17 11:36:25;;;;;;;3.83;2.30;;;;;;;;;;6193734;23;20027;-85
2023/10/17 11:38:56;;;;;;;5.07;2.70;;;;;;;;;;6194951;23;20463;-86
2023/10/17 11:41:28;;;;;;;5.82;2.47;;;;;;;;;;6193163;23;20027;-85
2023/10/17 11:43:55;;;;;;;2.92;2.28;;;;;;;;;;6193291;23;20023;-85
2023/10/17 11:46:28;;;;;;;4.15;2.35;;;;;;;;;;6193952;23;20013;-85
2023/10/17 11:48:54;;;;;;;5.47;2.72;;;;;;;;;;6195071;23;20035;-85
2023/10/17 11:51:28;;;;;;;3.92;2.38;;;;;;;;;;6194151;23;20012;-85
2023/10/17 11:54:08;;;;;;;4.22;2.15;;;;;;;;;;6193663;23;20449;-85
2023/10/17 11:56:38;;;;;;;3.20;2.20;;;;;;;;;;6193885;23;20038;-86
2023/10/17 11:59:07;;;;;;;5.07;2.35;;;;;;;;;;6192643;23;20016;-85
2023/10/17 12:01:33;;;;;;;4.15;2.20;;;;;;;;;;6193613;23;20054;-85
2023/10/17 12:04:01;;;;;;;3.47;2.00;;;;;;;;;;6192949;23;20016;-85
2023/10/17 12:06:30;;;;;;;4.57;2.22;;;;;;;;;;6218676;23;20020;-86
2023/10/17 12:08:56;;;;;;;4.35;2.20;;;;;;;;;;6192661;23;20394;-86
2023/10/17 12:11:24;;;;;;;3.90;2.22;;;;;;;;;;6193849;23;20150;-86
2023/10/17 12:13:53;;;;;;;4.05;2.10;;;;;;;;;;6193197;23;20020;-86
2023/10/17 12:16:26;;;;;;;4.22;2.33;;;;;;;;;;6193482;23;20400;-85
2023/10/17 12:18:52;;;;;;;3.55;2.10;;;;;;;;;;6193594;23;20050;-86
2023/10/17 12:21:19;;;;;;;4.15;2.35;;;;;;;;;;6192761;23;20152;-86
2023/10/17 12:23:45;;;;;;;2.88;2.30;;;;;;;;;;6193320;23;20018;-86
2023/10/17 12:26:14;;;;;;;4.25;2.50;;;;;;;;;;6218634;23;20016;-85
2023/10/17 12:28:41;;;;;;;7.03;2.45;;;;;;;;;;6193442;23;20028;-86
2023/10/17 12:31:08;;;;;;;5.47;2.45;;;;;;;;;;6193539;23;20016;-86
2023/10/17 12:33:37;;;;;;;4.30;2.58;;;;;;;;;;6192984;23;20082;-86
2023/10/17 12:36:06;;;;;;;7.35;2.60;;;;;;;;;;6193377;23;20392;-86
2023/10/17 12:38:36;;;;;;;3.50;2.58;;;;;;;;;;6193715;23;20027;-85
2023/10/17 12:41:06;;;;;;;5.32;2.50;;;;;;;;;;6193403;23;20027;-87
2023/10/17 12:43:34;;;;;;;4.75;2.60;;;;;;;;;;6193777;23;20020;-86
2023/10/17 12:46:00;;;;;;;5.53;2.55;;;;;;;;;;6193152;23;20016;-86
2023/10/17 12:48:26;;;;;;;4.88;2.67;;;;;;;;;;6193692;23;20031;-86
2023/10/17 12:50:52;;;;;;;4.38;2.60;;;;;;;;;;6193502;23;20016;-86
2023/10/17 12:53:19;;;;;;;3.70;2.63;;;;;;;;;;6218374;23;20479;-86
2023/10/17 12:55:45;;;;;;;6.15;2.80;;;;;;;;;;6193431;23;20016;-85
2023/10/17 12:58:11;;;;;;;3.72;2.55;;;;;;;;;;6193003;23;20318;-85
2023/10/17 13:00:38;;;;;;;5.25;2.58;;;;;;;;;;6193232;23;20020;-86
2023/10/17 13:03:06;;;;;;;4.40;2.28;;;;;;;;;;6217917;23;20095;-86
2023/10/17 13:05:32;;;;;;;4.65;2.65;;;;;;;;;;6218695;23;20016;-86
2023/10/17 13:07:58;;;;;;;3.42;2.63;;;;;;;;;;6193600;23;20016;-86
2023/10/17 13:10:26;;;;;;;3.92;2.60;;;;;;;;;;6193602;23;20045;-85
2023/10/17 13:12:52;;;;;;;5.05;2.80;;;;;;;;;;6217792;23;20016;-86
2023/10/17 13:15:18;;;;;;;5.03;2.92;;;;;;;;;;6193383;23;20079;-86
2023/10/17 13:17:46;;;;;;;6.70;2.58;;;;;;;;;;6193691;23;20012;-86
2023/10/17 13:20:14;;;;;;;5.65;2.85;;;;;;;;;;6192865;23;20105;-85
2023/10/17 13:22:47;;;;;;;4.00;2.38;;;;;;;;;;6243703;23;20078;-86
2023/10/17 13:25:18;;;;;;;5.88;3.03;;;;;;;;;;6193875;23;20024;-86
2023/10/17 13:27:45;;;;;;;4.40;2.97;;;;;;;;;;6193078;23;20457;-86
2023/10/17 13:30:11;;;;;;;5.60;2.97;;;;;;;;;;6193521;23;20012;-86
2023/10/17 13:32:37;;;;;;;3.75;2.50;;;;;;;;;;6193256;23;20020;-86
2023/10/17 13:35:04;;;;;;;4.45;2.60;;;;;;;;;;6193472;23;20090;-86
2023/10/17 13:37:30;;;;;;;6.28;3.05;;;;;;;;;;6192858;23;20512;-86
2023/10/17 13:39:56;;;;;;;6.30;2.50;;;;;;;;;;6193211;23;20023;-86
2023/10/17 13:42:23;;;;;;;6.60;3.03;;;;;;;;;;6193335;23;20094;-86
2023/10/17 13:44:50;;;;;;;4.25;2.80;;;;;;;;;;6193162;23;20047;-86
2023/10/17 13:47:16;;;;;;;4.88;2.60;;;;;;;;;;6193621;23;20130;-86
2023/10/17 13:49:43;;;;;;;4.60;2.70;;;;;;;;;;6193110;23;20116;-86
2023/10/17 13:52:17;;;;;;;4.70;2.30;;;;;;;;;;6218766;23;20024;-86
2023/10/17 13:54:44;;;;;;;3.05;2.20;;;;;;;;;;6194068;23;20020;-85
2023/10/17 13:57:12;;;;;;;5.07;3.03;;;;;;;;;;6193245;23;20344;-86
2023/10/17 13:59:38;;;;;;;5.70;2.78;;;;;;;;;;6193197;23;20016;-85
2023/10/17 14:02:08;;;;;;;6.47;2.75;;;;;;;;;;6193316;23;20024;-85
2023/10/17 14:04:36;;;;;;;3.83;2.15;;;;;;;;;;6192954;23;20086;-85
2023/10/17 14:07:05;;;;;;;3.42;2.90;;;;;;;;;;6191912;23;20023;-85
2023/10/17 14:09:31;;;;;;;4.13;2.28;;;;;;;;;;6192800;23;20020;-85
2023/10/17 14:11:58;;;;;;;4.97;2.47;;;;;;;;;;6193155;23;20096;-86
2023/10/17 14:14:25;;;;;;;2.78;2.22;;;;;;;;;;6193491;23;20103;-85
2023/10/17 14:16:52;;;;;;;4.10;2.15;;;;;;;;;;6193101;23;20452;-85
2023/10/17 14:19:28;;;;;;;5.05;2.03;;;;;;;;;;6193404;23;20020;-85
2023/10/17 14:27:21;;;;;;;4.93;2.03;;;;;;;;;;6217559;23;20047;-85
2023/10/17 14:29:47;;;;;;;6.78;2.40;;;;;;;;;;6192547;23;20036;-85
2023/10/17 14:32:20;;;;;;;4.18;2.13;;;;;;;;;;6193135;23;20012;-87
2023/10/17 14:34:47;;;;;;;4.18;2.33;;;;;;;;;;6191675;23;20051;-87
2023/10/17 14:37:23;;;;;;;7.50;3.05;;;;;;;;;;6194278;23;20016;-86
2023/10/17 14:39:58;;;;;;;5.63;2.80;;;;;;;;;;6194936;23;20016;-86
2023/10/17 14:42:27;;;;;;;5.47;2.30;;;;;;;;;;6194198;23;20012;-86
2023/10/17 14:44:56;;;;;;;5.13;2.50;;;;;;;;;;6195193;23;20016;-85
2023/10/17 14:47:24;;;;;;;3.53;2.10;;;;;;;;;;6193685;23;20449;-85
2023/10/17 14:49:50;;;;;;;2.53;2.30;;;;;;;;;;6193974;23;20012;-86
2023/10/17 14:52:18;;;;;;;3.10;2.25;;;;;;;;;;6195139;23;20381;-86
2023/10/17 14:54:45;;;;;;;3.80;2.67;;;;;;;;;;6194271;23;20341;-85
2023/10/17 14:57:13;;;;;;;5.90;2.60;;;;;;;;;;6194512;23;20341;-84
2023/10/17 14:59:42;;;;;;;4.65;2.53;;;;;;;;;;6193347;23;20074;-85
2023/10/17 15:02:10;;;;;;;4.32;2.50;;;;;;;;;;6193689;23;20039;-85
2023/10/17 15:04:37;;;;;;;4.90;2.38;;;;;;;;;;6194195;23;20111;-86
2023/10/17 15:07:04;;;;;;;5.28;2.47;;;;;;;;;;6193970;23;20027;-84
2023/10/17 15:09:30;;;;;;;3.35;2.20;;;;;;;;;;6193295;23;20020;-85
2023/10/17 15:11:57;;;;;;;5.10;2.80;;;;;;;;;;6195472;23;20016;-86
2023/10/17 15:14:23;;;;;;;4.55;2.50;;;;;;;;;;6193257;23;20036;-86
2023/10/17 15:16:49;;;;;;;3.80;2.55;;;;;;;;;;6194639;23;20445;-85
2023/10/17 15:19:16;;;;;;;9.98;7.60;;;;;;;;;;6194236;23;20024;-85
2023/10/17 15:21:45;;;;;;;5.93;3.53;;;;;;;;;;6194320;23;20321;-86
2023/10/17 15:24:12;;;;;;;4.47;2.90;;;;;;;;;;6246118;23;20048;-85
2023/10/17 15:26:39;;;;;;;4.05;2.63;;;;;;;;;;6194129;23;20031;-85
2023/10/17 15:29:05;;;;;;;4.65;2.70;;;;;;;;;;6194151;23;20016;-85
2023/10/17 15:31:32;;;;;;;5.03;2.80;;;;;;;;;;6193907;23;20020;-85
2023/10/17 15:33:58;;;;;;;4.60;3.30;;;;;;;;;;6194607;23;20012;-85
2023/10/17 15:36:29;;;;;;;5.10;3.30;;;;;;;;;;6194595;23;20425;-86
2023/10/17 15:39:01;;;;;;;5.35;3.60;;;;;;;;;;6193973;23;20020;-85
2023/10/17 15:41:30;;;;;;;6.07;3.83;;;;;;;;;;6194065;23;20090;-86
2023/10/17 15:43:56;;;;;;;8.00;3.80;;;;;;;;;;6193539;23;20440;-86
2023/10/17 15:46:24;;;;;;;5.10;4.38;;;;;;;;;;6193108;23;20023;-85
2023/10/17 15:48:54;;;;;;;7.45;3.60;;;;;;;;;;6193854;23;20491;-85
2023/10/17 15:51:28;;;;;;;7.43;3.40;;;;;;;;;;6194575;23;20023;-86
2023/10/17 15:53:54;;;;;;;4.35;3.53;;;;;;;;;;6194221;23;20023;-86
2023/10/17 15:56:27;;;;;;;4.45;3.30;;;;;;;;;;6193792;23;20344;-86
2023/10/17 15:58:53;;;;;;;5.70;3.22;;;;;;;;;;6194069;23;20016;-86
2023/10/17 16:01:19;;;;;;;3.90;3.22;;;;;;;;;;6194387;23;20054;-86
2023/10/17 16:03:46;;;;;;;4.40;3.20;;;;;;;;;;6193721;23;20016;-86
2023/10/17 16:06:12;;;;;;;5.82;3.30;;;;;;;;;;6193633;23;20016;-86
2023/10/17 16:08:40;;;;;;;6.03;3.20;;;;;;;;;;6193329;23;20023;-86
2023/10/17 16:11:06;;;;;;;4.07;3.13;;;;;;;;;;6193973;23;20065;-86
2023/10/17 16:13:32;;;;;;;5.82;3.20;;;;;;;;;;6218811;23;20016;-86
2023/10/17 16:16:00;;;;;;;6.38;3.72;;;;;;;;;;6193672;23;20012;-86
2023/10/17 16:18:27;;;;;;;4.75;3.28;;;;;;;;;;6193296;23;20345;-85
2023/10/17 16:20:53;;;;;;;4.93;3.10;;;;;;;;;;6193816;23;20027;-84
2023/10/17 16:23:20;;;;;;;4.78;3.25;;;;;;;;;;6193549;23;20013;-85
2023/10/17 16:25:49;;;;;;;5.25;3.53;;;;;;;;;;6193586;23;20016;-84
2023/10/17 16:28:16;;;;;;;5.90;3.20;;;;;;;;;;6193063;23;20012;-85
2023/10/17 16:30:47;;;;;;;4.90;3.05;;;;;;;;;;6193797;23;20016;-84
2023/10/17 16:33:13;;;;;;;6.93;3.45;;;;;;;;;;6192367;23;20016;-85
2023/10/17 16:35:42;;;;;;;5.05;2.90;;;;;;;;;;6193391;23;20024;-84
2023/10/17 16:38:11;;;;;;;4.47;3.20;;;;;;;;;;6193919;23;20360;-85
2023/10/17 16:40:44;;;;;;;4.15;3.22;;;;;;;;;;6193075;23;20386;-86
2023/10/17 16:43:13;;;;;;;6.40;3.38;;;;;;;;;;6193582;23;20020;-85
2023/10/17 16:45:46;;;;;;;3.70;2.40;;;;;;;;;;6193557;23;20337;-84
2023/10/17 16:48:13;;;;;;;3.15;2.55;;;;;;;;;;6193025;23;20017;-84
2023/10/17 16:50:39;;;;;;;4.32;3.13;;;;;;;;;;6193193;23;20012;-85
2023/10/17 16:53:05;;;;;;;4.95;2.80;;;;;;;;;;6193577;23;20385;-85
2023/10/17 16:55:31;;;;;;;3.63;2.80;;;;;;;;;;6192872;23;20020;-84
2023/10/17 16:57:57;;;;;;;5.60;3.17;;;;;;;;;;6193665;23;20016;-83